sensor_id;sensor_type;location;lat;lon;timestamp;pressure;altitude;pressure_sealevel;temperature;humidity
28004;BME280;15330;51.234;6.754;2022-10-16T00:01:19;100700.38;;;13.91;95.36
28004;BME280;15330;51.234;6.754;2022-10-16T00:03:46;100703.81;;;13.85;95.32
28004;BME280;15330;51.234;6.754;2022-10-16T00:06:12;100693.97;;;13.92;95.31
28004;BME280;15330;51.234;6.754;2022-10-16T00:08:38;100700.59;;;13.90;95.34
28004;BME280;15330;51.234;6.754;2022-10-16T00:13:33;100709.19;;;13.85;95.52
28004;BME280;15330;51.234;6.754;2022-10-16T00:16:00;100705.13;;;13.75;95.99
28004;BME280;15330;51.234;6.754;2022-10-16T00:18:26;100709.03;;;13.87;95.51
28004;BME280;15330;51.234;6.754;2022-10-16T00:20:52;100713.94;;;13.83;95.48
28004;BME280;15330;51.234;6.754;2022-10-16T00:23:18;100713.19;;;13.75;95.79
28004;BME280;15330;51.234;6.754;2022-10-16T00:25:44;100718.88;;;13.80;95.46
28004;BME280;15330;51.234;6.754;2022-10-16T00:28:09;100714.69;;;13.77;95.65
28004;BME280;15330;51.234;6.754;2022-10-16T00:30:38;100709.66;;;13.74;95.64
28004;BME280;15330;51.234;6.754;2022-10-16T00:33:03;100708.19;;;13.72;95.87
28004;BME280;15330;51.234;6.754;2022-10-16T00:35:30;100702.81;;;13.72;96.08
28004;BME280;15330;51.234;6.754;2022-10-16T00:37:56;100706.44;;;13.79;95.45
28004;BME280;15330;51.234;6.754;2022-10-16T00:40:21;100708.66;;;13.75;95.50
28004;BME280;15330;51.234;6.754;2022-10-16T00:42:46;100699.22;;;13.79;95.51
28004;BME280;15330;51.234;6.754;2022-10-16T00:45:12;100704.75;;;13.78;95.63
28004;BME280;15330;51.234;6.754;2022-10-16T00:47:40;100699.09;;;13.73;95.65
28004;BME280;15330;51.234;6.754;2022-10-16T00:50:13;100699.69;;;13.68;95.77
28004;BME280;15330;51.234;6.754;2022-10-16T00:52:44;100698.19;;;13.66;96.26
28004;BME280;15330;51.234;6.754;2022-10-16T00:55:11;100690.59;;;13.69;95.83
28004;BME280;15330;51.234;6.754;2022-10-16T00:57:37;100688.09;;;13.68;95.83
28004;BME280;15330;51.234;6.754;2022-10-16T01:00:05;100697.72;;;13.62;95.95
28004;BME280;15330;51.234;6.754;2022-10-16T01:02:30;100699.75;;;13.60;96.12
28004;BME280;15330;51.234;6.754;2022-10-16T01:04:56;100696.34;;;13.66;96.01
28004;BME280;15330;51.234;6.754;2022-10-16T01:10:20;100693.91;;;13.71;96.15
28004;BME280;15330;51.234;6.754;2022-10-16T01:18:11;100708.66;;;13.60;96.13
28004;BME280;15330;51.234;6.754;2022-10-16T01:20:51;100707.81;;;13.60;95.71
28004;BME280;15330;51.234;6.754;2022-10-16T01:28:47;100716.91;;;13.59;96.07
28004;BME280;15330;51.234;6.754;2022-10-16T01:31:18;100718.00;;;13.65;95.63
28004;BME280;15330;51.234;6.754;2022-10-16T01:33:47;100708.09;;;13.65;95.63
28004;BME280;15330;51.234;6.754;2022-10-16T01:36:24;100703.09;;;13.62;95.88
28004;BME280;15330;51.234;6.754;2022-10-16T01:38:54;100699.50;;;13.70;95.44
28004;BME280;15330;51.234;6.754;2022-10-16T01:41:32;100701.41;;;13.61;95.74
28004;BME280;15330;51.234;6.754;2022-10-16T01:44:05;100705.78;;;13.62;95.46
28004;BME280;15330;51.234;6.754;2022-10-16T01:46:36;100704.03;;;13.69;95.43
28004;BME280;15330;51.234;6.754;2022-10-16T01:49:03;100713.47;;;13.65;95.75
28004;BME280;15330;51.234;6.754;2022-10-16T01:51:29;100712.09;;;13.69;95.45
28004;BME280;15330;51.234;6.754;2022-10-16T01:53:57;100717.09;;;13.72;95.12
28004;BME280;15330;51.234;6.754;2022-10-16T01:56:25;100718.00;;;13.65;95.65
28004;BME280;15330;51.234;6.754;2022-10-16T01:58:56;100716.47;;;13.70;95.52
28004;BME280;15330;51.234;6.754;2022-10-16T02:01:24;100721.19;;;13.68;96.02
28004;BME280;15330;51.234;6.754;2022-10-16T02:03:54;100711.53;;;13.59;96.17
28004;BME280;15330;51.234;6.754;2022-10-16T02:06:22;100706.50;;;13.71;95.73
28004;BME280;15330;51.234;6.754;2022-10-16T02:08:48;100703.38;;;13.67;96.04
28004;BME280;15330;51.234;6.754;2022-10-16T02:11:13;100718.84;;;13.65;95.95
28004;BME280;15330;51.234;6.754;2022-10-16T02:13:46;100726.84;;;13.58;96.21
28004;BME280;15330;51.234;6.754;2022-10-16T02:16:13;100725.81;;;13.59;96.16
28004;BME280;15330;51.234;6.754;2022-10-16T02:18:39;100719.69;;;13.66;96.10
28004;BME280;15330;51.234;6.754;2022-10-16T02:27:03;100727.28;;;13.62;95.41
28004;BME280;15330;51.234;6.754;2022-10-16T02:29:28;100723.41;;;13.65;94.99
28004;BME280;15330;51.234;6.754;2022-10-16T02:31:58;100736.66;;;13.66;94.90
28004;BME280;15330;51.234;6.754;2022-10-16T02:34:25;100734.31;;;13.63;94.70
28004;BME280;15330;51.234;6.754;2022-10-16T02:36:55;100728.41;;;13.68;94.27
28004;BME280;15330;51.234;6.754;2022-10-16T02:39:21;100733.78;;;13.68;93.84
28004;BME280;15330;51.234;6.754;2022-10-16T02:41:47;100732.78;;;13.69;93.29
28004;BME280;15330;51.234;6.754;2022-10-16T02:44:12;100732.38;;;13.72;93.71
28004;BME280;15330;51.234;6.754;2022-10-16T02:46:38;100741.09;;;13.74;93.57
28004;BME280;15330;51.234;6.754;2022-10-16T02:49:03;100737.31;;;13.68;93.97
28004;BME280;15330;51.234;6.754;2022-10-16T02:51:28;100728.78;;;13.65;93.82
28004;BME280;15330;51.234;6.754;2022-10-16T02:53:54;100726.75;;;13.67;93.71
28004;BME280;15330;51.234;6.754;2022-10-16T02:56:19;100739.81;;;13.70;93.66
28004;BME280;15330;51.234;6.754;2022-10-16T02:58:45;100740.66;;;13.70;93.50
28004;BME280;15330;51.234;6.754;2022-10-16T03:01:10;100737.09;;;13.55;94.05
28004;BME280;15330;51.234;6.754;2022-10-16T03:03:38;100731.63;;;13.63;93.82
28004;BME280;15330;51.234;6.754;2022-10-16T03:06:03;100736.56;;;13.59;93.73
28004;BME280;15330;51.234;6.754;2022-10-16T03:08:29;100738.97;;;13.54;94.09
28004;BME280;15330;51.234;6.754;2022-10-16T03:10:54;100738.78;;;13.56;93.94
28004;BME280;15330;51.234;6.754;2022-10-16T03:13:20;100729.41;;;13.52;94.23
28004;BME280;15330;51.234;6.754;2022-10-16T03:15:46;100729.13;;;13.47;94.35
28004;BME280;15330;51.234;6.754;2022-10-16T03:18:11;100727.66;;;13.44;94.27
28004;BME280;15330;51.234;6.754;2022-10-16T03:20:37;100725.78;;;13.45;94.35
28004;BME280;15330;51.234;6.754;2022-10-16T03:23:02;100725.69;;;13.53;93.92
28004;BME280;15330;51.234;6.754;2022-10-16T03:25:28;100728.97;;;13.48;93.91
28004;BME280;15330;51.234;6.754;2022-10-16T03:27:53;100718.38;;;13.47;94.06
28004;BME280;15330;51.234;6.754;2022-10-16T03:30:19;100726.44;;;13.47;93.98
28004;BME280;15330;51.234;6.754;2022-10-16T03:32:44;100729.41;;;13.37;94.02
28004;BME280;15330;51.234;6.754;2022-10-16T03:35:10;100737.84;;;13.49;93.66
28004;BME280;15330;51.234;6.754;2022-10-16T03:37:35;100735.44;;;13.54;93.40
28004;BME280;15330;51.234;6.754;2022-10-16T03:40:02;100743.59;;;13.46;93.45
28004;BME280;15330;51.234;6.754;2022-10-16T03:42:27;100736.19;;;13.48;93.34
28004;BME280;15330;51.234;6.754;2022-10-16T03:44:52;100735.72;;;13.44;92.99
28004;BME280;15330;51.234;6.754;2022-10-16T03:47:18;100742.75;;;13.45;92.88
28004;BME280;15330;51.234;6.754;2022-10-16T03:49:47;100737.06;;;13.40;93.15
28004;BME280;15330;51.234;6.754;2022-10-16T03:52:12;100741.81;;;13.38;93.21
28004;BME280;15330;51.234;6.754;2022-10-16T03:54:37;100744.31;;;13.40;93.17
28004;BME280;15330;51.234;6.754;2022-10-16T03:57:03;100747.47;;;13.29;93.84
28004;BME280;15330;51.234;6.754;2022-10-16T03:59:28;100745.41;;;13.31;93.63
28004;BME280;15330;51.234;6.754;2022-10-16T04:01:53;100743.03;;;13.36;93.26
28004;BME280;15330;51.234;6.754;2022-10-16T04:04:19;100742.38;;;13.34;93.50
28004;BME280;15330;51.234;6.754;2022-10-16T04:06:44;100749.59;;;13.33;92.92
28004;BME280;15330;51.234;6.754;2022-10-16T04:09:09;100764.03;;;13.32;93.29
28004;BME280;15330;51.234;6.754;2022-10-16T04:11:35;100759.00;;;13.29;93.19
28004;BME280;15330;51.234;6.754;2022-10-16T04:14:00;100753.19;;;13.26;93.29
28004;BME280;15330;51.234;6.754;2022-10-16T04:16:25;100761.25;;;13.26;93.40
28004;BME280;15330;51.234;6.754;2022-10-16T04:18:51;100768.13;;;13.28;93.23
28004;BME280;15330;51.234;6.754;2022-10-16T04:21:16;100775.97;;;13.30;93.15
28004;BME280;15330;51.234;6.754;2022-10-16T04:23:42;100781.16;;;13.16;93.38
28004;BME280;15330;51.234;6.754;2022-10-16T04:26:07;100787.81;;;13.20;93.24
28004;BME280;15330;51.234;6.754;2022-10-16T04:28:33;100788.78;;;13.28;92.97
28004;BME280;15330;51.234;6.754;2022-10-16T04:30:58;100800.72;;;13.25;92.91
28004;BME280;15330;51.234;6.754;2022-10-16T04:33:23;100803.25;;;13.18;93.13
28004;BME280;15330;51.234;6.754;2022-10-16T04:35:56;100797.72;;;13.20;93.21
28004;BME280;15330;51.234;6.754;2022-10-16T04:38:21;100796.25;;;13.17;93.27
28004;BME280;15330;51.234;6.754;2022-10-16T04:40:46;100791.50;;;13.19;92.98
28004;BME280;15330;51.234;6.754;2022-10-16T04:43:12;100772.06;;;13.17;93.13
28004;BME280;15330;51.234;6.754;2022-10-16T04:45:37;100779.31;;;13.09;93.60
28004;BME280;15330;51.234;6.754;2022-10-16T04:48:03;100790.59;;;13.04;94.05
28004;BME280;15330;51.234;6.754;2022-10-16T04:50:28;100811.00;;;13.13;93.48
28004;BME280;15330;51.234;6.754;2022-10-16T04:52:54;100810.13;;;13.21;93.22
28004;BME280;15330;51.234;6.754;2022-10-16T04:55:19;100809.28;;;13.20;93.12
28004;BME280;15330;51.234;6.754;2022-10-16T04:57:44;100819.75;;;13.15;93.47
28004;BME280;15330;51.234;6.754;2022-10-16T05:00:10;100809.19;;;13.14;93.64
28004;BME280;15330;51.234;6.754;2022-10-16T05:02:36;100825.97;;;13.16;93.56
28004;BME280;15330;51.234;6.754;2022-10-16T05:05:01;100825.34;;;13.06;94.03
28004;BME280;15330;51.234;6.754;2022-10-16T05:07:27;100826.81;;;13.16;93.63
28004;BME280;15330;51.234;6.754;2022-10-16T05:09:52;100826.63;;;13.18;93.61
28004;BME280;15330;51.234;6.754;2022-10-16T05:12:18;100821.44;;;13.08;93.88
28004;BME280;15330;51.234;6.754;2022-10-16T05:14:43;100832.38;;;13.07;94.26
28004;BME280;15330;51.234;6.754;2022-10-16T05:17:09;100832.34;;;13.15;93.91
28004;BME280;15330;51.234;6.754;2022-10-16T05:19:34;100836.91;;;13.06;94.17
28004;BME280;15330;51.234;6.754;2022-10-16T05:22:00;100838.78;;;13.06;94.22
28004;BME280;15330;51.234;6.754;2022-10-16T05:24:25;100842.63;;;13.03;94.45
28004;BME280;15330;51.234;6.754;2022-10-16T05:26:51;100847.28;;;13.09;93.83
28004;BME280;15330;51.234;6.754;2022-10-16T05:29:17;100852.72;;;13.01;94.56
28004;BME280;15330;51.234;6.754;2022-10-16T05:31:42;100853.56;;;13.02;94.67
28004;BME280;15330;51.234;6.754;2022-10-16T05:34:08;100837.94;;;13.05;94.38
28004;BME280;15330;51.234;6.754;2022-10-16T05:36:33;100845.38;;;12.95;94.67
28004;BME280;15330;51.234;6.754;2022-10-16T05:38:58;100852.03;;;13.07;94.18
28004;BME280;15330;51.234;6.754;2022-10-16T05:41:23;100848.75;;;12.89;94.97
28004;BME280;15330;51.234;6.754;2022-10-16T05:43:51;100857.13;;;12.94;94.97
28004;BME280;15330;51.234;6.754;2022-10-16T05:46:17;100869.50;;;13.03;94.45
28004;BME280;15330;51.234;6.754;2022-10-16T05:48:43;100872.47;;;13.08;94.13
28004;BME280;15330;51.234;6.754;2022-10-16T05:51:10;100861.94;;;13.07;94.27
28004;BME280;15330;51.234;6.754;2022-10-16T05:53:37;100873.50;;;13.07;94.27
28004;BME280;15330;51.234;6.754;2022-10-16T05:56:04;100866.63;;;13.05;94.38
28004;BME280;15330;51.234;6.754;2022-10-16T05:58:32;100875.16;;;13.08;94.33
28004;BME280;15330;51.234;6.754;2022-10-16T06:03:57;100894.50;;;13.04;94.42
28004;BME280;15330;51.234;6.754;2022-10-16T06:06:25;100887.91;;;13.14;94.12
28004;BME280;15330;51.234;6.754;2022-10-16T06:08:52;100884.47;;;12.98;94.81
28004;BME280;15330;51.234;6.754;2022-10-16T06:11:24;100901.84;;;13.18;93.84
28004;BME280;15330;51.234;6.754;2022-10-16T06:13:56;100901.47;;;13.21;94.08
28004;BME280;15330;51.234;6.754;2022-10-16T06:16:23;100908.16;;;13.25;93.80
28004;BME280;15330;51.234;6.754;2022-10-16T06:18:51;100902.19;;;13.15;94.22
28004;BME280;15330;51.234;6.754;2022-10-16T06:21:19;100902.47;;;13.20;94.18
28004;BME280;15330;51.234;6.754;2022-10-16T06:23:44;100905.31;;;13.18;94.41
28004;BME280;15330;51.234;6.754;2022-10-16T06:26:16;100910.69;;;13.18;94.26
28004;BME280;15330;51.234;6.754;2022-10-16T06:28:41;100922.25;;;13.27;93.76
28004;BME280;15330;51.234;6.754;2022-10-16T06:31:08;100902.44;;;13.28;93.82
28004;BME280;15330;51.234;6.754;2022-10-16T06:33:34;100897.34;;;13.33;93.85
28004;BME280;15330;51.234;6.754;2022-10-16T06:36:02;100909.00;;;13.48;93.46
28004;BME280;15330;51.234;6.754;2022-10-16T06:38:28;100911.53;;;13.87;91.91
28004;BME280;15330;51.234;6.754;2022-10-16T06:40:53;100924.84;;;13.81;91.52
28004;BME280;15330;51.234;6.754;2022-10-16T06:43:19;100916.00;;;13.95;91.30
28004;BME280;15330;51.234;6.754;2022-10-16T06:45:53;100931.19;;;14.69;88.05
28004;BME280;15330;51.234;6.754;2022-10-16T06:48:19;100940.91;;;14.85;87.27
28004;BME280;15330;51.234;6.754;2022-10-16T06:51:01;100943.00;;;14.39;88.61
28004;BME280;15330;51.234;6.754;2022-10-16T06:53:29;100946.56;;;14.31;88.83
28004;BME280;15330;51.234;6.754;2022-10-16T06:55:55;100949.38;;;14.67;87.42
28004;BME280;15330;51.234;6.754;2022-10-16T06:58:21;100950.66;;;15.01;86.39
28004;BME280;15330;51.234;6.754;2022-10-16T07:00:46;100953.75;;;15.34;84.61
28004;BME280;15330;51.234;6.754;2022-10-16T07:03:12;100956.22;;;15.14;85.21
28004;BME280;15330;51.234;6.754;2022-10-16T07:05:38;100962.78;;;14.61;87.29
28004;BME280;15330;51.234;6.754;2022-10-16T07:08:04;100961.34;;;14.65;87.21
28004;BME280;15330;51.234;6.754;2022-10-16T07:10:31;100968.34;;;14.59;87.73
28004;BME280;15330;51.234;6.754;2022-10-16T07:12:56;100975.00;;;14.49;87.93
28004;BME280;15330;51.234;6.754;2022-10-16T07:15:21;100973.81;;;14.51;88.24
28004;BME280;15330;51.234;6.754;2022-10-16T07:17:47;100985.59;;;14.50;88.11
28004;BME280;15330;51.234;6.754;2022-10-16T07:20:12;100988.47;;;14.49;88.88
28004;BME280;15330;51.234;6.754;2022-10-16T07:22:38;100990.06;;;14.58;88.13
28004;BME280;15330;51.234;6.754;2022-10-16T07:25:03;100997.47;;;14.85;87.26
28004;BME280;15330;51.234;6.754;2022-10-16T07:27:29;100996.28;;;15.02;85.85
28004;BME280;15330;51.234;6.754;2022-10-16T07:29:54;101004.44;;;15.09;85.33
28004;BME280;15330;51.234;6.754;2022-10-16T07:32:19;100998.88;;;14.81;86.71
28004;BME280;15330;51.234;6.754;2022-10-16T07:34:45;101006.94;;;14.96;86.50
28004;BME280;15330;51.234;6.754;2022-10-16T07:37:11;101013.22;;;15.68;83.20
28004;BME280;15330;51.234;6.754;2022-10-16T07:39:36;101015.34;;;15.37;84.98
28004;BME280;15330;51.234;6.754;2022-10-16T07:42:01;101010.53;;;16.95;78.74
28004;BME280;15330;51.234;6.754;2022-10-16T07:44:27;101020.06;;;17.32;77.50
28004;BME280;15330;51.234;6.754;2022-10-16T07:46:52;101027.56;;;18.37;73.43
28004;BME280;15330;51.234;6.754;2022-10-16T07:49:18;101030.38;;;17.15;76.79
28004;BME280;15330;51.234;6.754;2022-10-16T07:51:43;101030.03;;;17.92;73.59
28004;BME280;15330;51.234;6.754;2022-10-16T07:54:09;101026.47;;;18.90;70.78
28004;BME280;15330;51.234;6.754;2022-10-16T07:56:35;101030.25;;;18.50;70.93
28004;BME280;15330;51.234;6.754;2022-10-16T07:59:00;101038.16;;;19.42;68.09
28004;BME280;15330;51.234;6.754;2022-10-16T08:01:26;101027.91;;;19.57;68.25
28004;BME280;15330;51.234;6.754;2022-10-16T08:03:52;101046.53;;;19.85;66.63
28004;BME280;15330;51.234;6.754;2022-10-16T08:06:20;101041.59;;;19.31;67.14
28004;BME280;15330;51.234;6.754;2022-10-16T08:08:45;101047.25;;;20.05;66.07
28004;BME280;15330;51.234;6.754;2022-10-16T08:11:11;101049.78;;;20.32;64.85
28004;BME280;15330;51.234;6.754;2022-10-16T08:13:37;101056.66;;;19.71;65.85
28004;BME280;15330;51.234;6.754;2022-10-16T08:16:02;101056.78;;;20.46;64.77
28004;BME280;15330;51.234;6.754;2022-10-16T08:18:34;101062.88;;;20.66;63.05
28004;BME280;15330;51.234;6.754;2022-10-16T08:20:59;101062.72;;;20.61;64.68
28004;BME280;15330;51.234;6.754;2022-10-16T08:23:26;101070.44;;;21.07;61.23
28004;BME280;15330;51.234;6.754;2022-10-16T08:25:55;101066.19;;;20.68;62.26
28004;BME280;15330;51.234;6.754;2022-10-16T08:28:21;101068.53;;;20.40;63.01
28004;BME280;15330;51.234;6.754;2022-10-16T08:30:47;101074.63;;;20.85;62.64
28004;BME280;15330;51.234;6.754;2022-10-16T08:33:12;101070.41;;;22.22;59.29
28004;BME280;15330;51.234;6.754;2022-10-16T08:35:38;101073.41;;;23.37;56.97
28004;BME280;15330;51.234;6.754;2022-10-16T08:38:04;101087.44;;;22.70;58.05
28004;BME280;15330;51.234;6.754;2022-10-16T08:40:31;101086.00;;;22.56;57.08
28004;BME280;15330;51.234;6.754;2022-10-16T08:43:07;101082.72;;;23.01;55.68
28004;BME280;15330;51.234;6.754;2022-10-16T08:48:43;101090.09;;;22.89;54.05
28004;BME280;15330;51.234;6.754;2022-10-16T08:51:12;101094.34;;;23.08;54.45
28004;BME280;15330;51.234;6.754;2022-10-16T08:53:54;101100.38;;;23.33;53.97
28004;BME280;15330;51.234;6.754;2022-10-16T08:56:21;101104.75;;;24.14;51.47
28004;BME280;15330;51.234;6.754;2022-10-16T08:58:47;101118.19;;;23.13;53.19
28004;BME280;15330;51.234;6.754;2022-10-16T09:01:15;101113.44;;;23.31;52.80
28004;BME280;15330;51.234;6.754;2022-10-16T09:06:31;101115.09;;;24.74;49.09
28004;BME280;15330;51.234;6.754;2022-10-16T09:12:02;101113.75;;;26.83;43.62
28004;BME280;15330;51.234;6.754;2022-10-16T09:22:42;101113.19;;;29.68;35.81
28004;BME280;15330;51.234;6.754;2022-10-16T09:25:14;101124.16;;;27.60;39.49
28004;BME280;15330;51.234;6.754;2022-10-16T09:27:40;101124.22;;;29.68;36.28
28004;BME280;15330;51.234;6.754;2022-10-16T09:30:15;101128.47;;;30.78;33.39
28004;BME280;15330;51.234;6.754;2022-10-16T09:32:41;101128.22;;;29.11;35.01
28004;BME280;15330;51.234;6.754;2022-10-16T09:35:14;101134.63;;;30.70;33.57
28004;BME280;15330;51.234;6.754;2022-10-16T09:37:42;101129.34;;;32.16;31.34
28004;BME280;15330;51.234;6.754;2022-10-16T09:40:31;101133.97;;;31.83;31.34
28004;BME280;15330;51.234;6.754;2022-10-16T09:45:32;101127.63;;;30.82;32.93
28004;BME280;15330;51.234;6.754;2022-10-16T09:47:58;101133.97;;;31.35;32.27
28004;BME280;15330;51.234;6.754;2022-10-16T09:50:27;101137.22;;;30.85;32.25
28004;BME280;15330;51.234;6.754;2022-10-16T09:53:11;101120.53;;;32.33;30.46
28004;BME280;15330;51.234;6.754;2022-10-16T09:55:48;101122.78;;;32.31;30.25
28004;BME280;15330;51.234;6.754;2022-10-16T09:58:14;101122.34;;;32.75;29.99
28004;BME280;15330;51.234;6.754;2022-10-16T10:00:41;101120.16;;;33.18;28.60
28004;BME280;15330;51.234;6.754;2022-10-16T10:03:11;101127.66;;;32.71;29.53
28004;BME280;15330;51.234;6.754;2022-10-16T10:05:39;101121.03;;;30.00;32.20
28004;BME280;15330;51.234;6.754;2022-10-16T10:08:05;101125.13;;;31.15;31.71
28004;BME280;15330;51.234;6.754;2022-10-16T10:10:41;101117.78;;;32.65;29.64
28004;BME280;15330;51.234;6.754;2022-10-16T10:13:19;101121.41;;;30.27;32.18
28004;BME280;15330;51.234;6.754;2022-10-16T10:15:45;101121.63;;;26.38;38.38
28004;BME280;15330;51.234;6.754;2022-10-16T10:18:18;101123.03;;;28.44;36.09
28004;BME280;15330;51.234;6.754;2022-10-16T10:20:45;101125.25;;;24.00;42.81
28004;BME280;15330;51.234;6.754;2022-10-16T10:23:29;101136.00;;;27.19;37.66
28004;BME280;15330;51.234;6.754;2022-10-16T10:26:22;101139.63;;;26.28;40.17
28004;BME280;15330;51.234;6.754;2022-10-16T10:29:20;101139.28;;;23.40;45.00
28004;BME280;15330;51.234;6.754;2022-10-16T10:32:08;101136.00;;;26.50;40.68
28004;BME280;15330;51.234;6.754;2022-10-16T10:35:14;101130.59;;;29.53;34.30
28004;BME280;15330;51.234;6.754;2022-10-16T10:37:49;101132.81;;;25.82;39.56
28004;BME280;15330;51.234;6.754;2022-10-16T10:40:47;101142.00;;;25.33;42.13
28004;BME280;15330;51.234;6.754;2022-10-16T10:43:39;101143.75;;;24.38;43.87
28004;BME280;15330;51.234;6.754;2022-10-16T10:52:43;101130.16;;;30.40;32.53
28004;BME280;15330;51.234;6.754;2022-10-16T11:01:10;101151.34;;;29.10;35.02
28004;BME280;15330;51.234;6.754;2022-10-16T11:06:28;101152.75;;;31.15;31.90
28004;BME280;15330;51.234;6.754;2022-10-16T11:11:36;101150.09;;;30.26;31.62
28004;BME280;15330;51.234;6.754;2022-10-16T11:14:20;101144.22;;;31.11;31.22
28004;BME280;15330;51.234;6.754;2022-10-16T11:16:59;101153.13;;;29.71;31.93
28004;BME280;15330;51.234;6.754;2022-10-16T11:20:24;101152.09;;;30.16;31.91
28004;BME280;15330;51.234;6.754;2022-10-16T11:22:43;101154.03;;;27.52;37.82
28004;BME280;15330;51.234;6.754;2022-10-16T11:25:19;101159.13;;;25.62;41.67
28004;BME280;15330;51.234;6.754;2022-10-16T11:31:00;101165.63;;;23.58;45.25
28004;BME280;15330;51.234;6.754;2022-10-16T11:33:51;101154.78;;;24.15;44.25
28004;BME280;15330;51.234;6.754;2022-10-16T11:36:25;101153.53;;;24.34;43.09
28004;BME280;15330;51.234;6.754;2022-10-16T11:49:50;101173.25;;;22.56;46.15
28004;BME280;15330;51.234;6.754;2022-10-16T11:52:23;101163.28;;;22.09;46.07
28004;BME280;15330;51.234;6.754;2022-10-16T11:54:59;101168.03;;;21.22;48.75
28004;BME280;15330;51.234;6.754;2022-10-16T11:57:31;101167.13;;;21.65;49.02
28004;BME280;15330;51.234;6.754;2022-10-16T12:05:06;101177.59;;;22.76;47.48
28004;BME280;15330;51.234;6.754;2022-10-16T12:07:42;101177.03;;;22.97;47.51
28004;BME280;15330;51.234;6.754;2022-10-16T12:10:24;101174.47;;;21.64;49.58
28004;BME280;15330;51.234;6.754;2022-10-16T12:12:50;101182.13;;;21.74;48.71
28004;BME280;15330;51.234;6.754;2022-10-16T12:17:43;101181.41;;;22.15;49.53
28004;BME280;15330;51.234;6.754;2022-10-16T12:22:41;101175.34;;;22.43;48.87
28004;BME280;15330;51.234;6.754;2022-10-16T12:27:54;101171.94;;;22.47;48.65
28004;BME280;15330;51.234;6.754;2022-10-16T12:30:23;101177.84;;;22.97;48.24
28004;BME280;15330;51.234;6.754;2022-10-16T12:33:01;101169.78;;;22.08;49.42
28004;BME280;15330;51.234;6.754;2022-10-16T12:35:35;101164.50;;;22.24;49.90
28004;BME280;15330;51.234;6.754;2022-10-16T12:40:42;101171.13;;;21.26;50.77
28004;BME280;15330;51.234;6.754;2022-10-16T12:43:26;101168.78;;;21.84;50.47
28004;BME280;15330;51.234;6.754;2022-10-16T12:46:21;101159.22;;;22.00;49.63
28004;BME280;15330;51.234;6.754;2022-10-16T12:48:45;101174.00;;;22.04;49.10
28004;BME280;15330;51.234;6.754;2022-10-16T12:59:26;101190.88;;;21.14;51.54
28004;BME280;15330;51.234;6.754;2022-10-16T13:07:32;101166.06;;;20.55;53.06
28004;BME280;15330;51.234;6.754;2022-10-16T13:10:10;101156.75;;;20.69;52.52
28004;BME280;15330;51.234;6.754;2022-10-16T13:18:24;101170.59;;;22.38;51.07
28004;BME280;15330;51.234;6.754;2022-10-16T13:21:02;101173.09;;;21.91;50.22
28004;BME280;15330;51.234;6.754;2022-10-16T13:23:36;101170.03;;;22.48;49.84
28004;BME280;15330;51.234;6.754;2022-10-16T13:26:20;101183.91;;;21.25;51.47
28004;BME280;15330;51.234;6.754;2022-10-16T13:28:47;101172.91;;;20.64;52.59
28004;BME280;15330;51.234;6.754;2022-10-16T13:31:20;101172.19;;;21.61;51.79
28004;BME280;15330;51.234;6.754;2022-10-16T13:33:52;101167.72;;;22.21;50.98
28004;BME280;15330;51.234;6.754;2022-10-16T13:36:24;101174.22;;;21.84;50.96
28004;BME280;15330;51.234;6.754;2022-10-16T13:39:19;101176.56;;;21.26;51.69
28004;BME280;15330;51.234;6.754;2022-10-16T13:41:46;101166.66;;;20.57;51.99
28004;BME280;15330;51.234;6.754;2022-10-16T13:44:18;101164.69;;;20.95;51.75
28004;BME280;15330;51.234;6.754;2022-10-16T13:46:45;101172.13;;;20.81;52.69
28004;BME280;15330;51.234;6.754;2022-10-16T13:49:15;101170.19;;;20.64;53.04
28004;BME280;15330;51.234;6.754;2022-10-16T13:51:54;101166.66;;;21.31;52.34
28004;BME280;15330;51.234;6.754;2022-10-16T13:54:20;101161.47;;;21.48;50.55
28004;BME280;15330;51.234;6.754;2022-10-16T13:56:45;101166.91;;;22.03;51.04
28004;BME280;15330;51.234;6.754;2022-10-16T13:59:41;101177.56;;;21.49;51.07
28004;BME280;15330;51.234;6.754;2022-10-16T14:02:29;101191.72;;;21.15;52.65
28004;BME280;15330;51.234;6.754;2022-10-16T14:04:57;101182.00;;;20.76;53.31
28004;BME280;15330;51.234;6.754;2022-10-16T14:07:29;101193.09;;;20.74;53.42
28004;BME280;15330;51.234;6.754;2022-10-16T14:10:00;101195.81;;;20.74;54.23
28004;BME280;15330;51.234;6.754;2022-10-16T14:12:27;101194.00;;;20.93;53.71
28004;BME280;15330;51.234;6.754;2022-10-16T14:14:54;101190.59;;;20.98;54.15
28004;BME280;15330;51.234;6.754;2022-10-16T14:17:32;101189.91;;;20.52;54.42
28004;BME280;15330;51.234;6.754;2022-10-16T14:20:02;101175.44;;;20.21;55.43
28004;BME280;15330;51.234;6.754;2022-10-16T14:22:37;101157.47;;;19.75;56.56
28004;BME280;15330;51.234;6.754;2022-10-16T14:25:24;101173.81;;;20.13;56.19
28004;BME280;15330;51.234;6.754;2022-10-16T14:28:22;101170.84;;;20.21;56.75
28004;BME280;15330;51.234;6.754;2022-10-16T14:30:50;101180.41;;;20.30;57.11
28004;BME280;15330;51.234;6.754;2022-10-16T14:36:20;101180.56;;;19.97;58.29
28004;BME280;15330;51.234;6.754;2022-10-16T14:39:01;101178.72;;;19.85;58.84
28004;BME280;15330;51.234;6.754;2022-10-16T14:41:28;101167.56;;;20.06;59.06
28004;BME280;15330;51.234;6.754;2022-10-16T14:43:56;101174.47;;;20.08;57.71
28004;BME280;15330;51.234;6.754;2022-10-16T14:46:30;101174.72;;;19.94;57.67
28004;BME280;15330;51.234;6.754;2022-10-16T14:49:12;101188.31;;;19.94;57.82
28004;BME280;15330;51.234;6.754;2022-10-16T14:51:41;101192.22;;;20.04;57.56
28004;BME280;15330;51.234;6.754;2022-10-16T14:54:14;101199.53;;;20.10;58.00
28004;BME280;15330;51.234;6.754;2022-10-16T14:56:54;101193.06;;;20.05;59.11